Terminal Aerodrome Forecast
Issued by NWS Billings, MT

Home | Current Version | Previous Version | Text Only | Print | Product List | Glossary On
Versions: 1 2 3 4 5 6 7 8 9 10 11 12
000
FTUS45 KBYZ 061728
TAFSHR
TAF
KSHR 061728Z 0618/0718 33013G20KT 3SM FU FEW040 BKN060
     FM070200 VRB06KT 4SM FU SCT040 BKN060 OVC080
     FM071500 12010KT 5SM -RA BKN030 OVC040=

USA.gov is the U.S. government's official web portal to all federal, state and local government web resources and services.